createdAt,value
2019-02-24T00:03:54.838Z,1.96
2019-02-24T00:10:25.988Z,1.82
2019-02-24T00:17:01.675Z,1.84
2019-02-24T00:23:34.480Z,1.80
2019-02-24T00:30:02.377Z,1.67
2019-02-24T00:39:53.443Z,1.66
2019-02-24T00:45:47.751Z,1.58
2019-02-24T00:52:17.948Z,1.47
2019-02-24T00:58:43.572Z,1.47
2019-02-24T01:05:09.406Z,1.50
2019-02-24T01:11:33.196Z,1.46
2019-02-24T01:18:15.021Z,1.35
2019-02-24T01:24:56.030Z,1.40
2019-02-24T01:31:39.333Z,1.33
2019-02-24T01:38:16.267Z,1.28
2019-02-24T01:44:18.494Z,1.33
2019-02-24T01:50:57.453Z,1.25
2019-02-24T01:57:36.408Z,1.17
2019-02-24T02:04:19.740Z,1.25
2019-02-24T02:10:32.200Z,1.21
2019-02-24T02:16:58.053Z,1.20
2019-02-24T02:23:24.719Z,1.10
2019-02-24T02:29:49.891Z,1.09
2019-02-24T02:36:16.722Z,1.00
2019-02-24T02:42:44.320Z,0.99
2019-02-24T02:49:11.000Z,1.03
2019-02-24T02:59:26.217Z,0.91
2019-02-24T03:06:16.398Z,0.87
2019-02-24T03:12:42.361Z,0.84
2019-02-24T03:19:10.198Z,0.74
2019-02-24T03:25:33.784Z,0.76
2019-02-24T03:32:01.842Z,0.72
2019-02-24T03:38:18.518Z,0.63
2019-02-24T03:44:12.830Z,0.55
2019-02-24T03:50:36.627Z,0.59
2019-02-24T04:00:52.993Z,0.54
2019-02-24T04:07:18.809Z,0.49
2019-02-24T04:13:44.651Z,0.39
2019-02-24T04:20:10.227Z,0.37
2019-02-24T04:26:37.278Z,0.35
2019-02-24T04:33:05.149Z,0.32
2019-02-24T04:39:32.695Z,0.30
2019-02-24T04:46:09.892Z,0.27
2019-02-24T04:52:50.606Z,0.24
2019-02-24T05:02:19.142Z,0.21
2019-02-24T05:08:47.329Z,0.16
2019-02-24T05:15:13.150Z,0.11
2019-02-24T05:21:38.972Z,0.10
2019-02-24T05:28:04.585Z,0.05
2019-02-24T05:34:43.740Z,0.00
2019-02-24T05:41:20.675Z,-0.05
2019-02-24T05:47:27.302Z,-0.11
2019-02-24T05:54:04.233Z,-0.12
2019-02-24T06:04:28.415Z,-0.13
2019-02-24T06:11:05.113Z,-0.13
2019-02-24T06:17:32.218Z,-0.14
2019-02-24T06:24:04.595Z,-0.16
2019-02-24T06:30:29.636Z,-0.17
2019-02-24T06:37:01.756Z,-0.21
2019-02-24T06:43:30.340Z,-0.20
2019-02-24T06:49:22.085Z,-0.17
2019-02-24T06:55:45.583Z,-0.15
2019-02-24T07:05:52.622Z,-0.20
2019-02-24T07:12:31.842Z,-0.17
2019-02-24T07:19:14.634Z,-0.18
2019-02-24T07:25:51.543Z,-0.18
2019-02-24T07:32:30.714Z,-0.13
2019-02-24T07:39:10.270Z,-0.10
2019-02-24T07:45:48.409Z,-0.07
2019-02-24T07:52:27.563Z,-0.04
2019-02-24T07:58:55.407Z,0.06
2019-02-24T08:08:45.917Z,0.16
2019-02-24T08:15:27.225Z,0.25
2019-02-24T08:22:05.060Z,0.37
2019-02-24T08:28:45.131Z,0.43
2019-02-24T08:35:14.753Z,0.52
2019-02-24T08:41:42.827Z,0.65
2019-02-24T08:47:36.998Z,0.74
2019-02-24T08:54:04.079Z,0.83
2019-02-24T09:00:32.799Z,1.03
2019-02-24T09:10:40.024Z,1.33
2019-02-24T09:17:25.751Z,1.57
2019-02-24T09:24:07.015Z,1.81
2019-02-24T09:30:45.970Z,2.03
2019-02-24T09:37:09.777Z,2.34
2019-02-24T09:43:02.266Z,2.67
2019-02-24T09:49:28.850Z,2.89
2019-02-24T09:55:54.701Z,3.03
2019-02-24T10:02:32.432Z,3.19
2019-02-24T10:12:34.551Z,3.37
2019-02-24T10:19:13.773Z,3.52
2019-02-24T10:25:50.697Z,3.75
2019-02-24T10:31:52.918Z,3.89
2019-02-24T10:38:29.826Z,4.09
2019-02-24T10:45:09.167Z,4.19
2019-02-24T10:51:48.114Z,4.34
2019-02-24T10:58:34.530Z,4.48
2019-02-24T11:05:07.709Z,4.65
2019-02-24T11:14:57.541Z,5.08
2019-02-24T11:21:38.546Z,5.40
2019-02-24T11:28:06.452Z,5.67
2019-02-24T11:34:32.293Z,5.87
2019-02-24T11:41:01.019Z,6.05
2019-02-24T11:47:30.955Z,6.21
2019-02-24T11:53:58.863Z,6.38
2019-02-24T12:00:26.895Z,6.62
2019-02-24T12:06:20.395Z,6.81
2019-02-24T12:16:34.243Z,7.11
2019-02-24T12:23:18.138Z,7.25
2019-02-24T12:29:57.425Z,7.45
2019-02-24T12:36:23.242Z,7.65
2019-02-24T12:42:50.822Z,7.85
2019-02-24T12:49:16.671Z,8.00
2019-02-24T12:55:44.157Z,8.17
2019-02-24T13:02:10.567Z,8.29
2019-02-24T13:07:59.812Z,8.41
2019-02-24T13:18:00.974Z,8.63
2019-02-24T13:24:39.926Z,8.76
2019-02-24T13:31:22.916Z,8.81
2019-02-24T13:37:49.745Z,8.86
2019-02-24T13:44:19.605Z,9.01
2019-02-24T13:50:47.238Z,9.06
2019-02-24T13:57:14.282Z,9.09
2019-02-24T14:03:45.913Z,9.19
2019-02-24T14:10:13.796Z,9.30
2019-02-24T14:20:31.114Z,9.51
2019-02-24T14:26:58.558Z,9.75
2019-02-24T14:33:24.768Z,10.27
2019-02-24T14:39:54.358Z,11.14
2019-02-24T14:46:20.207Z,11.38
2019-02-24T14:52:46.063Z,11.30
2019-02-24T14:58:36.732Z,11.24
2019-02-24T15:05:03.349Z,11.18
2019-02-24T15:11:32.074Z,11.20
2019-02-24T15:21:36.394Z,11.29
2019-02-24T15:27:38.987Z,11.31
2019-02-24T15:34:18.521Z,11.35
2019-02-24T15:40:47.637Z,11.24
2019-02-24T15:47:16.651Z,11.19
2019-02-24T15:53:42.462Z,11.04
2019-02-24T16:00:10.304Z,10.84
2019-02-24T16:06:37.203Z,10.55
2019-02-24T16:13:01.394Z,10.23
2019-02-24T16:23:09.673Z,9.79
2019-02-24T16:29:37.561Z,9.56
2019-02-24T16:36:06.656Z,9.33
2019-02-24T16:42:34.494Z,9.09
2019-02-24T16:49:03.519Z,8.86
2019-02-24T16:55:42.296Z,8.65
2019-02-24T17:02:11.796Z,8.44
2019-02-24T17:08:39.695Z,8.22
2019-02-24T17:15:09.856Z,8.04
2019-02-24T17:25:27.742Z,7.71
2019-02-24T17:32:06.691Z,7.55
2019-02-24T17:38:43.853Z,7.35
2019-02-24T17:45:24.610Z,7.19
2019-02-24T17:52:03.569Z,7.04
2019-02-24T17:58:40.475Z,6.87
2019-02-24T18:05:19.430Z,6.70
2019-02-24T18:11:58.616Z,6.52
2019-02-24T18:18:37.350Z,6.37
2019-02-24T18:28:42.345Z,6.13
2019-02-24T18:35:12.296Z,5.98
2019-02-24T18:41:54.385Z,5.87
2019-02-24T18:47:43.853Z,5.69
2019-02-24T18:54:07.652Z,5.59
2019-02-24T19:00:33.464Z,5.48
2019-02-24T19:06:59.296Z,5.28
2019-02-24T19:13:25.106Z,5.15
2019-02-24T19:19:50.710Z,5.07
2019-02-24T19:26:17.757Z,4.96
2019-02-24T19:32:47.340Z,4.89
2019-02-24T19:39:17.482Z,4.67
2019-02-24T19:45:44.305Z,4.53
2019-02-24T19:51:59.020Z,4.47
2019-02-24T19:57:56.314Z,4.38
2019-02-24T20:04:22.162Z,4.36
2019-02-24T20:10:50.885Z,4.27
2019-02-24T20:17:22.876Z,4.05
2019-02-24T20:23:48.729Z,4.02
2019-02-24T20:30:20.723Z,3.92
2019-02-24T20:36:49.435Z,3.87
2019-02-24T20:43:05.060Z,3.79
2019-02-24T20:52:55.226Z,3.68
2019-02-24T20:59:32.154Z,3.57
2019-02-24T21:06:17.165Z,3.53
2019-02-24T21:12:54.097Z,3.40
2019-02-24T21:19:19.655Z,3.34
2019-02-24T21:25:47.552Z,3.23
2019-02-24T21:32:16.268Z,3.25
2019-02-24T21:38:43.435Z,3.16
2019-02-24T21:44:35.924Z,2.99
2019-02-24T21:54:38.545Z,2.83
2019-02-24T22:01:17.502Z,2.83
2019-02-24T22:07:58.558Z,2.78
2019-02-24T22:14:26.407Z,2.66
2019-02-24T22:20:50.210Z,2.56
2019-02-24T22:26:41.660Z,2.57
2019-02-24T22:33:05.759Z,2.52
2019-02-24T22:39:32.539Z,2.42
2019-02-24T22:46:02.080Z,2.31
2019-02-24T22:56:17.316Z,2.29
2019-02-24T23:02:56.461Z,2.31
2019-02-24T23:09:25.315Z,2.21
2019-02-24T23:15:54.098Z,2.11
2019-02-24T23:22:23.013Z,2.09
2019-02-24T23:28:51.534Z,2.08
2019-02-24T23:35:21.490Z,2.01
2019-02-24T23:41:47.329Z,2.00
2019-02-24T23:48:26.291Z,1.95
2019-02-24T23:58:21.391Z,1.95
